createdAt,value
2023-05-12T00:01:47.248Z,22.20
2023-05-12T00:04:15.302Z,21.53
2023-05-12T00:06:43.347Z,23.50
2023-05-12T00:09:11.264Z,21.60
2023-05-12T00:11:39.290Z,22.23
2023-05-12T00:14:07.710Z,22.93
2023-05-12T00:16:37.072Z,22.73
2023-05-12T00:19:05.208Z,22.90
2023-05-12T00:21:33.459Z,22.27
2023-05-12T00:24:02.865Z,22.63
2023-05-12T00:26:30.899Z,22.33
2023-05-12T00:28:58.829Z,24.83
2023-05-12T00:31:26.797Z,22.13
2023-05-12T00:33:56.932Z,21.30
2023-05-12T00:36:25.157Z,22.17
2023-05-12T00:38:54.097Z,24.27
2023-05-12T00:41:22.132Z,23.27
2023-05-12T00:43:50.065Z,25.73
2023-05-12T00:46:18.943Z,24.00
2023-05-12T00:48:47.284Z,23.13
2023-05-12T00:51:17.586Z,22.67
2023-05-12T00:53:50.355Z,23.07
2023-05-12T00:56:19.915Z,24.40
2023-05-12T00:58:48.370Z,22.83
2023-05-12T01:01:17.899Z,22.53
2023-05-12T01:03:48.793Z,22.77
2023-05-12T01:06:24.109Z,22.93
2023-05-12T01:08:53.210Z,22.10
2023-05-12T01:11:21.736Z,23.37
2023-05-12T01:13:49.795Z,24.07
2023-05-12T01:16:23.900Z,25.63
2023-05-12T01:18:55.553Z,24.07
2023-05-12T01:21:25.824Z,23.23
2023-05-12T01:23:59.911Z,22.43
2023-05-12T01:26:32.413Z,22.87
2023-05-12T01:29:03.593Z,22.73
2023-05-12T01:31:33.288Z,23.87
2023-05-12T01:34:01.576Z,23.80
2023-05-12T01:36:32.981Z,23.10
2023-05-12T01:39:01.004Z,24.57
2023-05-12T01:41:29.183Z,24.60
2023-05-12T01:43:58.644Z,23.80
2023-05-12T01:46:27.472Z,24.33
2023-05-12T01:48:58.451Z,23.37
2023-05-12T01:51:27.274Z,25.67
2023-05-12T01:53:57.044Z,24.03
2023-05-12T01:56:26.484Z,24.17
2023-05-12T01:58:55.511Z,23.77
2023-05-12T02:01:28.545Z,25.43
2023-05-12T02:03:58.506Z,23.33
2023-05-12T02:06:28.462Z,24.60
2023-05-12T02:08:57.573Z,23.47
2023-05-12T02:11:25.870Z,23.80
2023-05-12T02:13:56.502Z,23.47
2023-05-12T02:16:27.258Z,23.40
2023-05-12T02:18:55.404Z,21.87
2023-05-12T02:21:23.352Z,25.53
2023-05-12T02:23:52.856Z,25.70
2023-05-12T02:26:21.223Z,23.67
2023-05-12T02:28:49.446Z,22.20
2023-05-12T02:31:17.816Z,23.97
2023-05-12T02:33:47.143Z,23.97
2023-05-12T02:36:15.989Z,24.57
2023-05-12T02:38:43.932Z,24.90
2023-05-12T02:41:12.112Z,26.00
2023-05-12T02:43:40.036Z,23.83
2023-05-12T02:46:07.988Z,25.83
2023-05-12T02:48:36.028Z,24.90
2023-05-12T02:51:05.952Z,23.07
2023-05-12T02:53:33.977Z,22.73
2023-05-12T02:56:02.347Z,24.70
2023-05-12T02:58:30.391Z,23.97
2023-05-12T03:01:09.317Z,23.83
2023-05-12T03:03:39.118Z,24.30
2023-05-12T03:06:09.416Z,24.43
2023-05-12T03:08:37.672Z,23.33
2023-05-12T03:11:05.753Z,25.77
2023-05-12T03:13:33.771Z,26.40
2023-05-12T03:16:02.077Z,23.77
2023-05-12T03:18:31.577Z,24.90
2023-05-12T03:20:59.637Z,23.63
2023-05-12T03:23:29.053Z,23.87
2023-05-12T03:25:57.065Z,23.33
2023-05-12T03:28:26.296Z,25.07
2023-05-12T03:30:55.152Z,22.97
2023-05-12T03:33:24.571Z,24.53
2023-05-12T03:35:54.538Z,23.03
2023-05-12T03:38:22.610Z,24.33
2023-05-12T03:40:53.412Z,22.73
2023-05-12T03:43:22.009Z,24.97
2023-05-12T03:45:50.339Z,25.30
2023-05-12T03:48:18.426Z,23.80
2023-05-12T03:50:46.325Z,23.90
2023-05-12T03:53:14.337Z,23.60
2023-05-12T03:55:42.574Z,23.30
2023-05-12T03:58:12.723Z,24.40
2023-05-12T04:00:40.768Z,25.03
2023-05-12T04:03:09.054Z,24.03
2023-05-12T04:05:39.390Z,24.73
2023-05-12T04:08:07.452Z,24.87
2023-05-12T04:10:39.994Z,23.33
2023-05-12T04:13:08.320Z,25.27
2023-05-12T04:15:37.645Z,25.33
2023-05-12T04:18:05.715Z,24.00
2023-05-12T04:20:33.708Z,25.57
2023-05-12T04:23:01.628Z,25.13
2023-05-12T04:25:29.559Z,26.27
2023-05-12T04:27:57.549Z,25.70
2023-05-12T04:30:25.946Z,24.80
2023-05-12T04:32:56.050Z,24.93
2023-05-12T04:35:24.024Z,25.80
2023-05-12T04:37:52.028Z,25.10
2023-05-12T04:40:20.546Z,26.77
2023-05-12T04:42:48.694Z,25.20
2023-05-12T04:45:17.408Z,26.00
2023-05-12T04:47:45.563Z,25.63
2023-05-12T04:50:15.627Z,24.53
2023-05-12T04:52:43.960Z,27.07
2023-05-12T04:55:11.978Z,24.67
2023-05-12T04:57:41.304Z,24.37
2023-05-12T05:00:12.328Z,26.43
2023-05-12T05:02:41.376Z,27.00
2023-05-12T05:05:10.768Z,26.67
2023-05-12T05:07:40.196Z,25.83
2023-05-12T05:10:09.260Z,24.97
2023-05-12T05:12:38.026Z,25.80
2023-05-12T05:15:07.455Z,26.07
2023-05-12T05:17:35.566Z,25.87
2023-05-12T05:20:09.768Z,26.00
2023-05-12T05:22:41.250Z,25.63
2023-05-12T05:25:11.202Z,25.40
2023-05-12T05:27:39.703Z,25.97
2023-05-12T05:30:09.307Z,26.13
2023-05-12T05:32:40.144Z,25.50
2023-05-12T05:35:09.092Z,26.40
2023-05-12T05:37:42.232Z,26.27
2023-05-12T05:40:11.090Z,25.40
2023-05-12T05:42:39.108Z,25.07
2023-05-12T05:45:08.292Z,25.93
2023-05-12T05:47:38.150Z,27.17
2023-05-12T05:50:08.713Z,26.40
2023-05-12T05:52:42.036Z,25.83
2023-05-12T05:55:10.384Z,25.70
2023-05-12T05:57:38.342Z,25.00
2023-05-12T06:00:07.950Z,24.43
2023-05-12T06:02:41.633Z,27.50
2023-05-12T06:05:14.175Z,24.73
2023-05-12T06:07:44.084Z,25.30
2023-05-12T06:10:13.640Z,25.93
2023-05-12T06:12:42.857Z,25.67
2023-05-12T06:15:11.950Z,25.07
2023-05-12T06:17:40.162Z,25.73
2023-05-12T06:20:09.413Z,26.60
2023-05-12T06:22:37.454Z,25.63
2023-05-12T06:25:07.941Z,25.90
2023-05-12T06:27:36.010Z,25.03
2023-05-12T06:30:04.289Z,25.77
2023-05-12T06:32:32.762Z,24.97
2023-05-12T06:35:00.733Z,23.93
2023-05-12T06:37:28.753Z,25.10
2023-05-12T06:39:56.663Z,24.57
2023-05-12T06:42:27.782Z,24.47
2023-05-12T06:44:57.616Z,23.50
2023-05-12T06:47:25.561Z,25.07
2023-05-12T06:49:53.426Z,22.90
2023-05-12T06:52:23.822Z,24.87
2023-05-12T06:54:51.796Z,26.33
2023-05-12T06:57:20.230Z,28.83
2023-05-12T06:59:49.599Z,29.73
2023-05-12T07:02:18.055Z,29.80
2023-05-12T07:04:45.971Z,28.40
2023-05-12T07:07:13.899Z,27.90
2023-05-12T07:09:43.042Z,27.30
2023-05-12T07:12:11.085Z,27.83
2023-05-12T07:14:39.131Z,27.60
2023-05-12T07:17:08.367Z,25.43
2023-05-12T07:19:36.556Z,24.67
2023-05-12T07:22:04.748Z,26.73
2023-05-12T07:24:32.754Z,27.23
2023-05-12T07:27:00.724Z,25.90
2023-05-12T07:29:28.818Z,23.60
2023-05-12T07:31:57.177Z,24.13
2023-05-12T07:34:27.612Z,26.07
2023-05-12T07:36:55.523Z,25.97
2023-05-12T07:39:24.964Z,24.60
2023-05-12T07:41:53.475Z,24.57
2023-05-12T07:44:21.483Z,25.20
2023-05-12T07:46:49.357Z,24.30
2023-05-12T07:49:17.390Z,24.37
2023-05-12T07:51:46.643Z,25.00
2023-05-12T07:54:14.561Z,26.37
2023-05-12T07:56:42.568Z,27.70
2023-05-12T07:59:11.736Z,27.23
2023-05-12T08:01:39.723Z,26.80
2023-05-12T08:04:08.044Z,25.33
2023-05-12T08:06:36.094Z,26.97
2023-05-12T08:09:05.548Z,29.10
2023-05-12T08:11:33.596Z,27.73
2023-05-12T08:14:01.675Z,27.90
2023-05-12T08:16:29.621Z,26.77
2023-05-12T08:18:58.651Z,30.70
2023-05-12T08:21:28.599Z,27.10
2023-05-12T08:23:56.626Z,27.30
2023-05-12T08:26:25.862Z,28.47
2023-05-12T08:28:53.790Z,26.87
2023-05-12T08:31:22.269Z,27.83
2023-05-12T08:33:59.441Z,29.90
2023-05-12T08:36:36.811Z,30.33
2023-05-12T08:39:05.021Z,31.53
2023-05-12T08:41:42.856Z,33.07
2023-05-12T08:44:11.821Z,31.30
2023-05-12T08:46:40.127Z,30.33
2023-05-12T08:49:15.718Z,28.80
2023-05-12T08:51:49.899Z,28.70
2023-05-12T08:54:28.758Z,30.00
2023-05-12T08:59:29.083Z,28.73
2023-05-12T09:01:59.895Z,27.00
2023-05-12T09:04:28.379Z,29.10
2023-05-12T09:06:58.148Z,29.23
2023-05-12T09:09:29.409Z,30.67
2023-05-12T09:12:02.786Z,33.17
2023-05-12T09:14:35.545Z,32.23
2023-05-12T09:17:05.523Z,32.37
2023-05-12T09:19:34.366Z,30.97
2023-05-12T09:22:02.695Z,29.93
2023-05-12T09:24:37.871Z,29.70
2023-05-12T09:27:08.067Z,31.30
2023-05-12T09:29:45.027Z,31.97
2023-05-12T09:32:30.395Z,29.70
2023-05-12T09:34:58.351Z,32.27
2023-05-12T09:37:32.392Z,33.90
2023-05-12T09:40:01.437Z,30.67
2023-05-12T09:42:32.297Z,30.27
2023-05-12T09:45:01.227Z,30.97
2023-05-12T09:47:35.532Z,30.13
2023-05-12T09:50:04.027Z,30.60
2023-05-12T09:52:32.992Z,29.97
2023-05-12T09:55:09.739Z,31.77
2023-05-12T09:57:42.283Z,29.17
2023-05-12T10:00:31.349Z,30.60
2023-05-12T10:03:02.405Z,29.23
2023-05-12T10:05:32.738Z,32.70
2023-05-12T10:08:03.214Z,28.67
2023-05-12T10:10:31.193Z,30.03
2023-05-12T10:13:00.821Z,30.73
2023-05-12T10:15:29.033Z,33.90
2023-05-12T10:17:57.574Z,30.47
2023-05-12T10:20:26.173Z,31.10
2023-05-12T10:22:57.015Z,31.30
2023-05-12T10:25:25.998Z,31.67
2023-05-12T10:27:56.086Z,31.37
2023-05-12T10:30:26.468Z,30.10
2023-05-12T10:32:56.531Z,32.23
2023-05-12T10:35:33.801Z,31.80
2023-05-12T10:38:08.567Z,31.33
2023-05-12T10:40:36.921Z,30.00
2023-05-12T10:43:04.968Z,32.70
2023-05-12T10:45:38.287Z,30.23
2023-05-12T10:48:08.279Z,30.47
2023-05-12T10:50:36.429Z,29.87
2023-05-12T10:53:04.452Z,28.70
2023-05-12T10:55:34.468Z,29.83
2023-05-12T10:58:10.347Z,29.43
2023-05-12T11:00:47.905Z,28.57
2023-05-12T11:03:18.883Z,26.80
2023-05-12T11:05:59.183Z,28.20
2023-05-12T11:08:28.410Z,28.20
2023-05-12T11:10:56.663Z,28.50
2023-05-12T11:13:25.624Z,28.47
2023-05-12T11:15:57.323Z,28.57
2023-05-12T11:18:25.409Z,27.63
2023-05-12T11:20:53.477Z,28.40
2023-05-12T11:23:29.093Z,43.83
2023-05-12T11:25:57.373Z,28.97
2023-05-12T11:28:25.425Z,27.73
2023-05-12T11:30:55.701Z,30.30
2023-05-12T11:33:24.385Z,29.70
2023-05-12T11:35:52.357Z,30.83
2023-05-12T11:38:24.334Z,31.80
2023-05-12T11:40:52.466Z,28.60
2023-05-12T11:43:22.259Z,29.53
2023-05-12T11:45:50.569Z,28.47
2023-05-12T11:48:21.478Z,28.67
2023-05-12T11:50:51.320Z,29.00
2023-05-12T11:53:20.287Z,27.47
2023-05-12T11:55:50.921Z,28.47
2023-05-12T11:58:21.769Z,29.57
2023-05-12T12:00:49.957Z,29.03
2023-05-12T12:03:19.579Z,30.73
2023-05-12T12:06:01.532Z,30.43
2023-05-12T12:08:29.624Z,29.23
2023-05-12T12:10:57.497Z,36.43
2023-05-12T12:13:27.559Z,29.67
2023-05-12T12:15:56.305Z,27.37
2023-05-12T12:18:25.780Z,30.43
2023-05-12T12:20:53.760Z,27.87
2023-05-12T12:23:21.661Z,29.10
2023-05-12T12:25:49.712Z,31.53
2023-05-12T12:28:17.864Z,29.83
2023-05-12T12:30:45.853Z,29.43
2023-05-12T12:33:13.976Z,29.83
2023-05-12T12:35:43.349Z,28.00
2023-05-12T12:38:11.239Z,28.07
2023-05-12T12:40:39.181Z,30.80
2023-05-12T12:43:07.223Z,29.30
2023-05-12T12:45:35.153Z,38.60
2023-05-12T12:48:03.114Z,30.47
2023-05-12T12:50:32.340Z,29.73
2023-05-12T12:53:01.641Z,29.30
2023-05-12T12:55:29.611Z,29.47
2023-05-12T12:57:57.912Z,30.00
2023-05-12T13:00:26.883Z,31.97
2023-05-12T13:02:54.903Z,28.23
2023-05-12T13:05:23.261Z,28.27
2023-05-12T13:07:52.276Z,27.77
2023-05-12T13:10:21.763Z,27.03
2023-05-12T13:12:49.773Z,27.30
2023-05-12T13:15:19.358Z,27.47
2023-05-12T13:17:47.790Z,26.63
2023-05-12T13:20:17.034Z,27.97
2023-05-12T13:22:46.010Z,28.67
2023-05-12T13:25:13.913Z,31.97
2023-05-12T13:27:43.333Z,29.17
2023-05-12T13:30:13.518Z,27.90
2023-05-12T13:32:42.029Z,27.70
2023-05-12T13:35:10.524Z,27.73
2023-05-12T13:37:38.524Z,27.87
2023-05-12T13:40:07.745Z,29.27
2023-05-12T13:42:35.965Z,27.17
2023-05-12T13:45:06.085Z,31.10
2023-05-12T13:47:34.065Z,33.67
2023-05-12T13:50:01.970Z,37.67
2023-05-12T13:52:30.053Z,26.07
2023-05-12T13:54:58.193Z,24.87
2023-05-12T13:57:26.335Z,28.47
2023-05-12T13:59:57.641Z,25.43
2023-05-12T14:02:27.072Z,24.77
2023-05-12T14:04:56.142Z,28.80
2023-05-12T14:07:25.320Z,28.47
2023-05-12T14:09:53.258Z,51.90
2023-05-12T14:12:21.699Z,32.93
2023-05-12T14:14:50.543Z,24.20
2023-05-12T14:17:18.845Z,25.40
2023-05-12T14:19:48.153Z,25.57
2023-05-12T14:22:25.279Z,26.83
2023-05-12T14:24:55.482Z,27.20
2023-05-12T14:27:23.796Z,25.20
2023-05-12T14:29:51.815Z,26.40
2023-05-12T14:32:20.664Z,25.47
2023-05-12T14:34:49.916Z,26.43
2023-05-12T14:37:17.896Z,25.23
2023-05-12T14:39:45.796Z,33.33
2023-05-12T14:42:13.730Z,27.20
2023-05-12T14:44:41.678Z,28.63
2023-05-12T14:47:09.631Z,25.53
2023-05-12T14:49:37.652Z,25.27
2023-05-12T14:52:08.230Z,23.83
2023-05-12T14:54:36.213Z,26.93
2023-05-12T14:57:05.161Z,25.63
2023-05-12T14:59:33.624Z,26.60
2023-05-12T15:02:01.732Z,25.83
2023-05-12T15:04:30.475Z,30.63
2023-05-12T15:06:58.414Z,28.13
2023-05-12T15:09:27.703Z,25.90
2023-05-12T15:11:55.669Z,24.30
2023-05-12T15:16:53.225Z,28.53
2023-05-12T15:19:21.568Z,28.17
2023-05-12T15:21:49.489Z,27.53
2023-05-12T15:24:17.540Z,29.93
2023-05-12T15:26:46.933Z,27.43
2023-05-12T15:29:14.934Z,26.77
2023-05-12T15:31:42.940Z,27.60
2023-05-12T15:34:11.050Z,25.40
2023-05-12T15:36:39.018Z,27.00
2023-05-12T15:39:07.460Z,25.87
2023-05-12T15:41:35.495Z,25.23
2023-05-12T15:44:06.206Z,24.33
2023-05-12T15:46:35.640Z,25.07
2023-05-12T15:49:03.912Z,24.70
2023-05-12T15:51:33.776Z,23.10
2023-05-12T15:54:02.646Z,25.60
2023-05-12T15:56:30.777Z,25.93
2023-05-12T15:58:58.871Z,26.57
2023-05-12T16:01:28.445Z,24.47
2023-05-12T16:03:57.577Z,23.27
2023-05-12T16:06:25.526Z,24.77
2023-05-12T16:08:54.432Z,24.03
2023-05-12T16:11:22.365Z,25.17
2023-05-12T16:13:52.215Z,25.00
2023-05-12T16:16:20.445Z,25.20
2023-05-12T16:18:49.889Z,26.90
2023-05-12T16:21:17.873Z,23.93
2023-05-12T16:23:45.755Z,24.00
2023-05-12T16:26:13.763Z,26.63
2023-05-12T16:28:41.672Z,23.90
2023-05-12T16:31:09.675Z,23.17
2023-05-12T16:33:37.824Z,23.07
2023-05-12T16:36:07.544Z,24.83
2023-05-12T16:38:35.517Z,23.60
2023-05-12T16:41:03.431Z,23.47
2023-05-12T16:43:31.390Z,24.33
2023-05-12T16:46:04.120Z,26.83
2023-05-12T16:48:34.688Z,23.40
2023-05-12T16:51:03.571Z,24.53
2023-05-12T16:53:32.827Z,23.97
2023-05-12T16:56:01.588Z,24.67
2023-05-12T16:58:32.036Z,25.87
2023-05-12T17:01:00.728Z,24.97
2023-05-12T17:03:29.260Z,24.20
2023-05-12T17:05:57.434Z,27.10
2023-05-12T17:08:25.678Z,25.47
2023-05-12T17:10:55.012Z,24.40
2023-05-12T17:13:23.118Z,23.27
2023-05-12T17:15:52.425Z,23.80
2023-05-12T17:18:20.488Z,25.47
2023-05-12T17:20:48.723Z,25.33
2023-05-12T17:23:16.636Z,22.50
2023-05-12T17:25:44.571Z,23.97
2023-05-12T17:28:14.260Z,23.97
2023-05-12T17:30:42.926Z,24.67
2023-05-12T17:33:10.873Z,24.73
2023-05-12T17:35:38.959Z,21.43
2023-05-12T17:38:06.931Z,27.27
2023-05-12T17:40:35.339Z,22.57
2023-05-12T17:43:03.282Z,22.43
2023-05-12T17:45:32.691Z,23.57
2023-05-12T17:48:00.740Z,25.10
2023-05-12T17:50:28.668Z,24.73
2023-05-12T17:52:56.603Z,25.23
2023-05-12T17:55:24.626Z,26.13
2023-05-12T17:57:52.712Z,27.93
2023-05-12T18:00:21.023Z,28.90
2023-05-12T18:02:50.680Z,28.90
2023-05-12T18:05:20.746Z,28.67
2023-05-12T18:07:48.935Z,32.57
2023-05-12T18:10:17.073Z,30.37
2023-05-12T18:12:44.959Z,29.80
2023-05-12T18:15:13.215Z,27.87
2023-05-12T18:17:41.437Z,28.20
2023-05-12T18:20:11.824Z,26.03
2023-05-12T18:22:40.973Z,27.87
2023-05-12T18:25:09.987Z,25.17
2023-05-12T18:27:37.972Z,24.67
2023-05-12T18:30:06.812Z,24.57
2023-05-12T18:32:34.793Z,25.07
2023-05-12T18:35:02.847Z,23.27
2023-05-12T18:37:32.278Z,25.00
2023-05-12T18:40:00.202Z,24.43
2023-05-12T18:42:28.997Z,26.07
2023-05-12T18:44:57.031Z,25.23
2023-05-12T18:47:24.989Z,26.73
2023-05-12T18:49:53.166Z,25.40
2023-05-12T18:52:21.612Z,25.57
2023-05-12T18:54:50.900Z,27.33
2023-05-12T18:57:18.932Z,25.90
2023-05-12T18:59:46.922Z,24.50
2023-05-12T19:02:14.917Z,27.67
2023-05-12T19:04:42.970Z,26.17
2023-05-12T19:07:15.141Z,25.47
2023-05-12T19:09:43.343Z,24.27
2023-05-12T19:12:12.597Z,26.53
2023-05-12T19:14:40.780Z,26.13
2023-05-12T19:17:08.783Z,26.33
2023-05-12T19:19:36.839Z,25.63
2023-05-12T19:22:05.063Z,25.60
2023-05-12T19:24:33.157Z,26.23
2023-05-12T19:27:01.237Z,27.33
2023-05-12T19:29:30.619Z,24.80
2023-05-12T19:31:58.719Z,25.80
2023-05-12T19:34:26.816Z,25.43
2023-05-12T19:36:56.186Z,25.87
2023-05-12T19:39:24.126Z,27.03
2023-05-12T19:41:52.231Z,26.50
2023-05-12T19:44:20.176Z,26.77
2023-05-12T19:46:49.591Z,26.33
2023-05-12T19:49:17.643Z,26.67
2023-05-12T19:51:45.699Z,27.03
2023-05-12T19:54:14.023Z,28.20
2023-05-12T19:56:42.358Z,26.63
2023-05-12T19:59:10.388Z,26.77
2023-05-12T20:01:38.381Z,28.60
2023-05-12T20:04:08.221Z,26.60
2023-05-12T20:06:36.215Z,28.10
2023-05-12T20:09:04.390Z,26.47
2023-05-12T20:11:32.299Z,26.57
2023-05-12T20:14:00.184Z,26.97
2023-05-12T20:16:28.455Z,27.03
2023-05-12T20:18:56.778Z,27.50
2023-05-12T20:21:26.893Z,26.73
2023-05-12T20:23:54.815Z,26.47
2023-05-12T20:26:23.265Z,28.03
2023-05-12T20:28:51.412Z,27.13
2023-05-12T20:31:20.047Z,26.30
2023-05-12T20:33:48.002Z,25.83
2023-05-12T20:36:15.952Z,26.13
2023-05-12T20:38:45.257Z,27.50
2023-05-12T20:41:13.698Z,26.30
2023-05-12T20:43:41.667Z,28.77
2023-05-12T20:46:09.894Z,27.70
2023-05-12T20:48:38.179Z,26.57
2023-05-12T20:51:12.850Z,27.37
2023-05-12T20:53:40.915Z,26.53
2023-05-12T20:56:10.691Z,27.70
2023-05-12T20:58:38.721Z,26.83
2023-05-12T21:01:06.654Z,25.87
2023-05-12T21:03:34.942Z,26.70
2023-05-12T21:06:03.348Z,28.27
2023-05-12T21:08:31.305Z,28.10
2023-05-12T21:10:59.472Z,26.83
2023-05-12T21:13:29.098Z,27.20
2023-05-12T21:15:57.145Z,26.20
2023-05-12T21:18:25.131Z,26.97
2023-05-12T21:20:53.159Z,26.67
2023-05-12T21:23:21.044Z,27.23
2023-05-12T21:25:49.374Z,26.63
2023-05-12T21:28:17.555Z,26.23
2023-05-12T21:30:46.887Z,27.37
2023-05-12T21:33:14.911Z,26.40
2023-05-12T21:35:42.880Z,27.93
2023-05-12T21:38:10.992Z,28.23
2023-05-12T21:40:39.239Z,28.83
2023-05-12T21:43:07.165Z,27.53
2023-05-12T21:45:35.089Z,26.43
2023-05-12T21:48:04.390Z,28.00
2023-05-12T21:50:32.360Z,26.10
2023-05-12T21:53:00.209Z,26.90
2023-05-12T21:55:28.254Z,27.67
2023-05-12T21:57:56.492Z,27.13
2023-05-12T22:00:24.680Z,26.37
2023-05-12T22:02:52.718Z,28.10
2023-05-12T22:05:22.329Z,27.00
2023-05-12T22:07:50.218Z,28.70
2023-05-12T22:10:19.938Z,25.97
2023-05-12T22:12:47.933Z,27.77
2023-05-12T22:15:15.855Z,28.47
2023-05-12T22:17:45.395Z,27.73
2023-05-12T22:20:14.344Z,29.40
2023-05-12T22:22:43.857Z,29.63
2023-05-12T22:25:12.045Z,33.17
2023-05-12T22:27:39.958Z,31.30
2023-05-12T22:30:10.055Z,31.67
2023-05-12T22:32:38.051Z,29.33
2023-05-12T22:35:06.742Z,29.27
2023-05-12T22:37:34.849Z,30.33
2023-05-12T22:40:04.806Z,32.17
2023-05-12T22:42:32.810Z,31.83
2023-05-12T22:45:00.929Z,32.23
2023-05-12T22:47:28.907Z,30.33
2023-05-12T22:49:57.339Z,32.97
2023-05-12T22:52:25.358Z,31.93
2023-05-12T22:54:53.717Z,33.63
2023-05-12T22:57:23.503Z,32.57
2023-05-12T22:59:51.701Z,33.13
2023-05-12T23:02:20.672Z,33.43
2023-05-12T23:04:48.613Z,32.57
2023-05-12T23:07:16.863Z,33.13
2023-05-12T23:09:44.733Z,33.27
2023-05-12T23:12:12.718Z,34.97
2023-05-12T23:14:41.983Z,33.97
2023-05-12T23:17:11.094Z,34.40
2023-05-12T23:19:40.105Z,33.67
2023-05-12T23:22:08.078Z,33.23
2023-05-12T23:24:36.455Z,33.90
2023-05-12T23:27:04.513Z,33.10
2023-05-12T23:29:34.023Z,34.67
2023-05-12T23:32:03.473Z,34.37
2023-05-12T23:34:31.452Z,34.33
2023-05-12T23:36:59.377Z,34.33
2023-05-12T23:39:27.337Z,35.03
2023-05-12T23:41:55.597Z,36.13
2023-05-12T23:44:23.480Z,33.97
2023-05-12T23:46:52.398Z,33.27
2023-05-12T23:49:21.782Z,34.57
2023-05-12T23:51:49.717Z,33.73
2023-05-12T23:54:17.621Z,33.13
2023-05-12T23:56:45.823Z,31.60
2023-05-12T23:59:13.688Z,32.73
